createdAt,value
2018-01-15T00:01:35.556Z,11.93
2018-01-15T00:06:19.661Z,11.50
2018-01-15T00:11:02.961Z,11.13
2018-01-15T00:15:46.256Z,12.03
2018-01-15T00:20:29.581Z,11.77
2018-01-15T00:25:12.900Z,12.07
2018-01-15T00:29:56.201Z,14.50
2018-01-15T00:34:39.513Z,12.27
2018-01-15T00:39:22.821Z,13.23
2018-01-15T00:44:06.147Z,12.47
2018-01-15T00:48:49.746Z,14.37
2018-01-15T00:53:33.036Z,13.03
2018-01-15T00:58:16.355Z,13.13
2018-01-15T01:02:59.686Z,13.60
2018-01-15T01:07:43.794Z,13.40
2018-01-15T01:12:27.144Z,15.87
2018-01-15T01:17:10.477Z,13.23
2018-01-15T01:21:53.784Z,13.70
2018-01-15T01:26:37.120Z,13.97
2018-01-15T01:31:20.417Z,14.47
2018-01-15T01:36:03.737Z,10.57
2018-01-15T01:40:47.038Z,10.50
2018-01-15T01:45:30.620Z,11.83
2018-01-15T01:50:13.906Z,11.03
2018-01-15T01:54:57.980Z,8.50
2018-01-15T01:59:41.286Z,8.80
2018-01-15T02:04:24.615Z,7.77
2018-01-15T02:09:07.903Z,8.60
2018-01-15T02:13:51.477Z,10.63
2018-01-15T02:18:34.829Z,10.20
2018-01-15T02:23:18.130Z,9.43
2018-01-15T02:28:01.439Z,9.27
2018-01-15T02:32:44.731Z,9.83
2018-01-15T02:37:28.035Z,9.00
2018-01-15T02:42:12.382Z,8.03
2018-01-15T02:46:56.418Z,9.73
2018-01-15T02:51:39.726Z,10.33
2018-01-15T02:56:23.052Z,11.63
2018-01-15T03:01:06.399Z,9.97
2018-01-15T03:05:49.718Z,9.30
2018-01-15T03:10:34.053Z,11.53
2018-01-15T03:15:17.353Z,10.93
2018-01-15T03:20:00.694Z,13.27
2018-01-15T03:24:44.054Z,13.67
2018-01-15T03:29:27.370Z,13.60
2018-01-15T03:34:10.694Z,13.07
2018-01-15T03:38:54.008Z,15.33
2018-01-15T03:43:38.387Z,14.57
2018-01-15T03:48:21.685Z,14.93
2018-01-15T03:53:05.172Z,14.87
2018-01-15T03:57:49.288Z,15.37
2018-01-15T04:02:32.616Z,16.33
2018-01-15T04:07:16.188Z,15.87
2018-01-15T04:12:00.254Z,15.33
2018-01-15T04:16:43.585Z,15.97
2018-01-15T04:21:26.921Z,15.50
2018-01-15T04:26:10.258Z,17.20
2018-01-15T04:30:53.602Z,16.07
2018-01-15T04:35:36.928Z,16.93
2018-01-15T04:40:20.514Z,14.20
2018-01-15T04:45:03.785Z,15.87
2018-01-15T04:49:47.110Z,16.47
2018-01-15T04:54:30.542Z,16.83
2018-01-15T04:59:13.860Z,16.83
2018-01-15T05:03:57.965Z,16.57
2018-01-15T05:08:41.564Z,17.90
2018-01-15T05:13:25.657Z,17.73
2018-01-15T05:18:09.012Z,19.37
2018-01-15T05:22:52.326Z,16.63
2018-01-15T05:27:35.657Z,18.10
2018-01-15T05:32:19.019Z,16.40
2018-01-15T05:37:02.588Z,17.40
2018-01-15T05:41:45.904Z,18.67
2018-01-15T05:46:29.221Z,17.97
2018-01-15T05:51:13.301Z,17.57
2018-01-15T05:55:58.186Z,15.87
2018-01-15T06:00:41.551Z,16.33
2018-01-15T06:05:25.121Z,16.07
2018-01-15T06:10:08.419Z,16.33
2018-01-15T06:14:51.753Z,15.70
2018-01-15T06:19:35.090Z,15.63
2018-01-15T06:24:18.418Z,15.00
2018-01-15T06:29:01.738Z,16.47
2018-01-15T06:33:45.806Z,15.80
2018-01-15T06:38:29.150Z,15.50
2018-01-15T06:43:12.518Z,16.83
2018-01-15T06:47:55.845Z,14.80
2018-01-15T06:52:39.179Z,14.97
2018-01-15T06:57:22.539Z,13.37
2018-01-15T07:02:05.900Z,15.37
2018-01-15T07:06:49.228Z,14.53
2018-01-15T07:11:32.575Z,13.53
2018-01-15T07:16:15.891Z,11.57
2018-01-15T07:20:59.218Z,16.50
2018-01-15T07:25:42.528Z,15.67
2018-01-15T07:30:25.883Z,15.73
2018-01-15T07:35:10.004Z,15.33
2018-01-15T07:39:53.377Z,15.63
2018-01-15T07:44:37.464Z,20.23
2018-01-15T07:49:20.785Z,24.63
2018-01-15T07:54:04.088Z,18.40
2018-01-15T07:58:48.209Z,19.57
2018-01-15T08:03:31.517Z,16.90
2018-01-15T08:08:14.862Z,19.67
2018-01-15T08:12:58.189Z,19.57
2018-01-15T08:17:42.307Z,20.30
2018-01-15T08:22:25.646Z,17.47
2018-01-15T08:27:08.976Z,21.10
2018-01-15T08:31:52.502Z,17.30
2018-01-15T08:36:36.551Z,17.53
2018-01-15T08:41:19.891Z,16.87
2018-01-15T08:46:03.192Z,15.43
2018-01-15T08:50:46.514Z,15.70
2018-01-15T08:55:29.882Z,16.40
2018-01-15T09:00:13.933Z,16.27
2018-01-15T09:04:57.254Z,14.40
2018-01-15T09:09:40.567Z,13.33
2018-01-15T09:14:23.899Z,13.80
2018-01-15T09:19:07.235Z,14.33
2018-01-15T09:23:50.832Z,11.47
2018-01-15T09:28:34.155Z,15.40
2018-01-15T09:33:17.470Z,12.63
2018-01-15T09:38:00.783Z,11.67
2018-01-15T09:42:44.100Z,11.47
2018-01-15T09:47:27.394Z,12.37
2018-01-15T09:52:10.714Z,11.27
2018-01-15T09:56:54.024Z,12.57
2018-01-15T10:01:37.378Z,12.43
2018-01-15T10:06:21.488Z,10.13
2018-01-15T10:11:04.821Z,12.50
2018-01-15T10:15:48.179Z,12.77
2018-01-15T10:20:31.437Z,12.03
2018-01-15T10:25:15.522Z,11.27
2018-01-15T10:29:59.583Z,12.77
2018-01-15T10:34:42.919Z,13.13
2018-01-15T10:39:26.538Z,11.63
2018-01-15T10:44:09.828Z,12.33
2018-01-15T10:48:53.146Z,12.47
2018-01-15T10:53:38.093Z,11.53
2018-01-15T10:58:21.426Z,11.93
2018-01-15T11:03:04.732Z,12.97
2018-01-15T11:07:48.096Z,12.30
2018-01-15T11:12:31.406Z,13.30
2018-01-15T11:17:14.719Z,13.60
2018-01-15T11:21:58.146Z,14.07
2018-01-15T11:26:41.492Z,12.07
2018-01-15T11:31:25.571Z,13.60
2018-01-15T11:36:08.936Z,13.43
2018-01-15T11:40:52.229Z,13.83
2018-01-15T11:45:36.314Z,12.57
2018-01-15T11:50:19.643Z,12.63
2018-01-15T11:55:02.946Z,12.43
2018-01-15T11:59:46.237Z,11.03
2018-01-15T12:04:29.579Z,12.13
2018-01-15T12:09:12.883Z,10.30
2018-01-15T12:13:56.958Z,12.63
2018-01-15T12:18:40.291Z,11.40
2018-01-15T12:23:23.560Z,12.03
2018-01-15T12:28:06.900Z,12.80
2018-01-15T12:32:50.210Z,11.63
2018-01-15T12:37:33.507Z,12.60
2018-01-15T12:42:16.822Z,14.13
2018-01-15T12:47:01.230Z,11.17
2018-01-15T12:51:44.575Z,13.50
2018-01-15T12:56:27.926Z,11.43
2018-01-15T13:01:11.249Z,11.30
2018-01-15T13:06:09.439Z,10.97
2018-01-15T13:10:53.033Z,12.27
2018-01-15T13:15:36.342Z,14.90
2018-01-15T13:20:19.677Z,9.80
2018-01-15T13:25:03.066Z,10.90
2018-01-15T13:29:46.372Z,12.73
2018-01-15T13:34:29.746Z,10.37
2018-01-15T13:39:13.030Z,11.90
2018-01-15T13:43:57.110Z,13.43
2018-01-15T13:48:40.433Z,11.93
2018-01-15T13:53:24.562Z,11.83
2018-01-15T13:58:08.657Z,13.77
2018-01-15T14:02:52.004Z,13.27
2018-01-15T14:07:35.366Z,12.63
2018-01-15T14:12:18.736Z,12.97
2018-01-15T14:17:02.064Z,14.70
2018-01-15T14:21:45.438Z,14.73
2018-01-15T14:26:29.418Z,15.50
2018-01-15T14:31:12.764Z,12.87
2018-01-15T14:35:56.074Z,12.40
2018-01-15T14:40:40.177Z,13.90
2018-01-15T14:45:23.520Z,13.10
2018-01-15T14:50:06.833Z,14.13
2018-01-15T14:54:50.917Z,17.47
2018-01-15T14:59:34.248Z,12.67
2018-01-15T15:04:18.149Z,10.80
2018-01-15T15:09:01.462Z,11.33
2018-01-15T15:13:44.807Z,14.87
2018-01-15T15:18:28.191Z,13.20
2018-01-15T15:23:11.486Z,12.03
2018-01-15T15:27:54.798Z,16.93
2018-01-15T15:32:38.142Z,15.53
2018-01-15T15:37:21.477Z,16.40
2018-01-15T15:42:04.805Z,16.37
2018-01-15T15:46:48.902Z,16.03
2018-01-15T15:51:32.233Z,17.73
2018-01-15T15:56:15.572Z,17.10
2018-01-15T16:00:58.931Z,17.87
2018-01-15T16:05:42.264Z,17.30
2018-01-15T16:10:25.628Z,17.63
2018-01-15T16:15:09.246Z,19.13
2018-01-15T16:19:52.524Z,19.30
2018-01-15T16:24:35.906Z,22.33
2018-01-15T16:29:19.269Z,25.27
2018-01-15T16:34:02.595Z,20.77
2018-01-15T16:38:45.972Z,18.60
2018-01-15T16:43:29.308Z,19.10
2018-01-15T16:48:12.928Z,19.10
2018-01-15T16:52:56.214Z,17.70
2018-01-15T16:57:39.597Z,20.10
2018-01-15T17:02:22.931Z,19.63
2018-01-15T17:07:06.285Z,19.60
2018-01-15T17:11:49.638Z,19.63
2018-01-15T17:16:32.962Z,20.00
2018-01-15T17:21:16.312Z,18.60
2018-01-15T17:25:59.627Z,20.87
2018-01-15T17:30:42.966Z,18.63
2018-01-15T17:35:26.289Z,21.07
2018-01-15T17:40:10.408Z,21.70
2018-01-15T17:44:53.721Z,21.30
2018-01-15T17:49:37.090Z,18.83
2018-01-15T17:54:20.427Z,17.87
2018-01-15T17:59:03.732Z,17.53
2018-01-15T18:03:47.087Z,18.20
2018-01-15T18:08:30.399Z,17.87
2018-01-15T18:13:14.474Z,21.73
2018-01-15T18:17:57.806Z,21.17
2018-01-15T18:22:41.163Z,18.50
2018-01-15T18:27:24.504Z,18.73
2018-01-15T18:32:07.837Z,19.80
2018-01-15T18:36:51.135Z,19.23
2018-01-15T18:41:34.484Z,21.47
2018-01-15T18:46:18.255Z,17.17
2018-01-15T18:51:01.674Z,15.83
2018-01-15T18:55:45.014Z,13.13
2018-01-15T19:00:28.351Z,15.40
2018-01-15T19:05:11.629Z,17.13
2018-01-15T19:09:54.978Z,15.00
2018-01-15T19:14:38.343Z,14.37
2018-01-15T19:19:21.715Z,15.67
2018-01-15T19:24:05.097Z,16.13
2018-01-15T19:28:48.407Z,17.20
2018-01-15T19:33:32.490Z,17.13
2018-01-15T19:38:26.631Z,19.77
2018-01-15T19:43:15.518Z,16.83
2018-01-15T19:48:04.542Z,18.53
2018-01-15T19:52:53.417Z,16.30
2018-01-15T20:03:08.942Z,17.87
2018-01-15T20:08:11.997Z,16.93
2018-01-15T20:18:06.770Z,14.27
2018-01-15T20:22:50.828Z,17.30
2018-01-15T20:27:36.427Z,16.57
2018-01-15T20:32:20.566Z,14.87
2018-01-15T20:37:03.907Z,17.90
2018-01-15T20:41:47.249Z,18.60
2018-01-15T20:46:30.567Z,18.87
2018-01-15T20:51:14.690Z,17.27
2018-01-15T20:55:58.007Z,17.83
2018-01-15T21:00:41.367Z,18.37
2018-01-15T21:05:24.708Z,17.37
2018-01-15T21:10:08.080Z,20.10
2018-01-15T21:14:51.402Z,21.00
2018-01-15T21:19:34.775Z,21.23
2018-01-15T21:24:18.850Z,17.10
2018-01-15T21:29:02.182Z,17.33
2018-01-15T21:33:45.567Z,19.43
2018-01-15T21:38:28.946Z,17.90
2018-01-15T21:43:13.083Z,19.40
2018-01-15T21:47:57.213Z,18.93
2018-01-15T21:52:40.563Z,19.70
2018-01-15T21:57:23.856Z,20.70
2018-01-15T22:02:07.183Z,19.27
2018-01-15T22:06:51.272Z,20.03
2018-01-15T22:11:34.638Z,19.30
2018-01-15T22:16:17.950Z,16.70
2018-01-15T22:21:01.271Z,19.93
2018-01-15T22:25:44.627Z,18.63
2018-01-15T22:30:27.936Z,16.10
2018-01-15T22:35:11.296Z,20.13
2018-01-15T22:39:54.631Z,16.43
2018-01-15T22:44:37.959Z,16.33
2018-01-15T22:49:22.349Z,18.03
2018-01-15T22:54:05.674Z,15.30
2018-01-15T22:58:48.997Z,16.43
2018-01-15T23:03:34.273Z,13.50
2018-01-15T23:08:17.606Z,15.30
2018-01-15T23:13:01.736Z,14.33
2018-01-15T23:17:45.095Z,12.93
2018-01-15T23:22:28.526Z,13.10
2018-01-15T23:27:11.965Z,14.20
2018-01-15T23:31:55.376Z,14.00
2018-01-15T23:36:38.895Z,13.80
2018-01-15T23:41:22.294Z,13.07
2018-01-15T23:46:06.977Z,14.67
2018-01-15T23:50:50.370Z,13.53
2018-01-15T23:55:33.729Z,14.13
